sensor_id;sensor_type;location;lat;lon;timestamp;P1;durP1;ratioP1;P2;durP2;ratioP2
10315;SDS011;5203;48.976;8.306;2022-12-11T00:01:59;28.80;;;21.87;;
10315;SDS011;5203;48.976;8.306;2022-12-11T00:04:25;26.67;;;21.77;;
10315;SDS011;5203;48.976;8.306;2022-12-11T00:06:51;29.93;;;22.83;;
10315;SDS011;5203;48.976;8.306;2022-12-11T00:09:17;28.47;;;22.13;;
10315;SDS011;5203;48.976;8.306;2022-12-11T00:11:44;23.17;;;20.23;;
10315;SDS011;5203;48.976;8.306;2022-12-11T00:14:11;23.77;;;19.50;;
10315;SDS011;5203;48.976;8.306;2022-12-11T00:16:38;22.87;;;19.27;;
10315;SDS011;5203;48.976;8.306;2022-12-11T00:19:05;24.27;;;19.53;;
10315;SDS011;5203;48.976;8.306;2022-12-11T00:21:30;21.50;;;18.53;;
10315;SDS011;5203;48.976;8.306;2022-12-11T00:23:57;22.60;;;18.33;;
10315;SDS011;5203;48.976;8.306;2022-12-11T00:26:22;23.10;;;18.67;;
10315;SDS011;5203;48.976;8.306;2022-12-11T00:28:50;21.03;;;17.87;;
10315;SDS011;5203;48.976;8.306;2022-12-11T00:31:20;21.07;;;18.60;;
10315;SDS011;5203;48.976;8.306;2022-12-11T00:33:46;24.63;;;18.63;;
10315;SDS011;5203;48.976;8.306;2022-12-11T00:36:14;20.43;;;18.23;;
10315;SDS011;5203;48.976;8.306;2022-12-11T00:38:41;21.73;;;17.73;;
10315;SDS011;5203;48.976;8.306;2022-12-11T00:41:08;19.97;;;17.80;;
10315;SDS011;5203;48.976;8.306;2022-12-11T00:43:34;22.80;;;18.80;;
10315;SDS011;5203;48.976;8.306;2022-12-11T00:46:00;21.50;;;16.70;;
10315;SDS011;5203;48.976;8.306;2022-12-11T00:48:26;22.90;;;19.27;;
10315;SDS011;5203;48.976;8.306;2022-12-11T00:50:52;23.33;;;18.97;;
10315;SDS011;5203;48.976;8.306;2022-12-11T00:53:18;21.53;;;17.73;;
10315;SDS011;5203;48.976;8.306;2022-12-11T00:55:43;24.47;;;20.20;;
10315;SDS011;5203;48.976;8.306;2022-12-11T00:58:10;25.63;;;20.07;;
10315;SDS011;5203;48.976;8.306;2022-12-11T01:00:37;22.60;;;19.47;;
10315;SDS011;5203;48.976;8.306;2022-12-11T01:03:03;29.53;;;21.90;;
10315;SDS011;5203;48.976;8.306;2022-12-11T01:05:29;28.47;;;22.00;;
10315;SDS011;5203;48.976;8.306;2022-12-11T01:07:55;24.47;;;20.50;;
10315;SDS011;5203;48.976;8.306;2022-12-11T01:10:21;23.20;;;17.93;;
10315;SDS011;5203;48.976;8.306;2022-12-11T01:12:53;24.07;;;20.20;;
10315;SDS011;5203;48.976;8.306;2022-12-11T01:15:25;27.13;;;21.40;;
10315;SDS011;5203;48.976;8.306;2022-12-11T01:17:53;27.40;;;22.20;;
10315;SDS011;5203;48.976;8.306;2022-12-11T01:20:19;27.43;;;21.43;;
10315;SDS011;5203;48.976;8.306;2022-12-11T01:22:46;29.17;;;22.00;;
10315;SDS011;5203;48.976;8.306;2022-12-11T01:25:12;30.53;;;22.37;;
10315;SDS011;5203;48.976;8.306;2022-12-11T01:27:38;31.13;;;23.93;;
10315;SDS011;5203;48.976;8.306;2022-12-11T01:30:04;28.60;;;23.20;;
10315;SDS011;5203;48.976;8.306;2022-12-11T01:32:32;30.17;;;23.33;;
10315;SDS011;5203;48.976;8.306;2022-12-11T01:34:58;30.00;;;22.53;;
10315;SDS011;5203;48.976;8.306;2022-12-11T01:37:24;31.67;;;25.27;;
10315;SDS011;5203;48.976;8.306;2022-12-11T01:39:50;31.80;;;23.87;;
10315;SDS011;5203;48.976;8.306;2022-12-11T01:42:16;34.50;;;24.97;;
10315;SDS011;5203;48.976;8.306;2022-12-11T01:47:09;36.27;;;25.13;;
10315;SDS011;5203;48.976;8.306;2022-12-11T01:49:35;35.13;;;24.23;;
10315;SDS011;5203;48.976;8.306;2022-12-11T01:54:43;35.63;;;25.20;;
10315;SDS011;5203;48.976;8.306;2022-12-11T01:57:09;34.13;;;24.67;;
10315;SDS011;5203;48.976;8.306;2022-12-11T01:59:38;38.00;;;26.10;;
10315;SDS011;5203;48.976;8.306;2022-12-11T02:02:11;37.83;;;25.57;;
10315;SDS011;5203;48.976;8.306;2022-12-11T02:04:42;36.87;;;25.67;;
10315;SDS011;5203;48.976;8.306;2022-12-11T02:07:10;40.30;;;26.57;;
10315;SDS011;5203;48.976;8.306;2022-12-11T02:09:36;40.67;;;26.83;;
10315;SDS011;5203;48.976;8.306;2022-12-11T02:20:50;35.80;;;24.93;;
10315;SDS011;5203;48.976;8.306;2022-12-11T02:29:00;39.40;;;24.87;;
10315;SDS011;5203;48.976;8.306;2022-12-11T02:31:37;37.47;;;25.77;;
10315;SDS011;5203;48.976;8.306;2022-12-11T02:34:18;39.90;;;25.23;;
10315;SDS011;5203;48.976;8.306;2022-12-11T02:36:48;40.13;;;25.63;;
10315;SDS011;5203;48.976;8.306;2022-12-11T02:39:16;37.63;;;25.57;;
10315;SDS011;5203;48.976;8.306;2022-12-11T02:41:44;43.03;;;27.53;;
10315;SDS011;5203;48.976;8.306;2022-12-11T02:44:13;41.67;;;26.73;;
10315;SDS011;5203;48.976;8.306;2022-12-11T02:46:41;40.37;;;26.13;;
10315;SDS011;5203;48.976;8.306;2022-12-11T02:49:08;48.13;;;28.37;;
10315;SDS011;5203;48.976;8.306;2022-12-11T02:51:37;46.50;;;28.50;;
10315;SDS011;5203;48.976;8.306;2022-12-11T02:54:05;41.50;;;28.03;;
10315;SDS011;5203;48.976;8.306;2022-12-11T02:56:43;43.67;;;29.37;;
10315;SDS011;5203;48.976;8.306;2022-12-11T02:59:16;47.63;;;27.67;;
10315;SDS011;5203;48.976;8.306;2022-12-11T03:01:46;43.27;;;27.77;;
10315;SDS011;5203;48.976;8.306;2022-12-11T03:04:11;40.20;;;27.57;;
10315;SDS011;5203;48.976;8.306;2022-12-11T03:06:41;41.97;;;26.27;;
10315;SDS011;5203;48.976;8.306;2022-12-11T03:09:11;40.80;;;26.87;;
10315;SDS011;5203;48.976;8.306;2022-12-11T03:11:37;43.07;;;27.60;;
10315;SDS011;5203;48.976;8.306;2022-12-11T03:14:02;46.13;;;29.80;;
10315;SDS011;5203;48.976;8.306;2022-12-11T03:19:23;39.87;;;27.00;;
10315;SDS011;5203;48.976;8.306;2022-12-11T03:22:03;43.80;;;27.63;;
10315;SDS011;5203;48.976;8.306;2022-12-11T03:24:43;38.83;;;25.50;;
10315;SDS011;5203;48.976;8.306;2022-12-11T03:27:19;39.80;;;26.40;;
10315;SDS011;5203;48.976;8.306;2022-12-11T03:29:56;39.60;;;27.47;;
10315;SDS011;5203;48.976;8.306;2022-12-11T03:32:27;42.20;;;26.20;;
10315;SDS011;5203;48.976;8.306;2022-12-11T03:35:02;37.23;;;24.80;;
10315;SDS011;5203;48.976;8.306;2022-12-11T03:37:34;39.03;;;24.93;;
10315;SDS011;5203;48.976;8.306;2022-12-11T03:40:03;41.63;;;26.50;;
10315;SDS011;5203;48.976;8.306;2022-12-11T03:42:34;41.10;;;26.07;;
10315;SDS011;5203;48.976;8.306;2022-12-11T03:45:02;37.43;;;24.97;;
10315;SDS011;5203;48.976;8.306;2022-12-11T03:47:30;40.57;;;25.43;;
10315;SDS011;5203;48.976;8.306;2022-12-11T03:49:57;37.30;;;24.27;;
10315;SDS011;5203;48.976;8.306;2022-12-11T03:52:25;36.73;;;25.27;;
10315;SDS011;5203;48.976;8.306;2022-12-11T03:54:52;36.90;;;25.47;;
10315;SDS011;5203;48.976;8.306;2022-12-11T03:57:21;36.63;;;23.97;;
10315;SDS011;5203;48.976;8.306;2022-12-11T03:59:52;35.30;;;23.07;;
10315;SDS011;5203;48.976;8.306;2022-12-11T04:02:18;32.73;;;22.77;;
10315;SDS011;5203;48.976;8.306;2022-12-11T04:04:44;37.77;;;26.53;;
10315;SDS011;5203;48.976;8.306;2022-12-11T04:07:09;33.87;;;23.33;;
10315;SDS011;5203;48.976;8.306;2022-12-11T04:09:35;36.90;;;24.10;;
10315;SDS011;5203;48.976;8.306;2022-12-11T04:12:00;40.77;;;26.63;;
10315;SDS011;5203;48.976;8.306;2022-12-11T04:14:26;31.43;;;23.00;;
10315;SDS011;5203;48.976;8.306;2022-12-11T04:17:11;33.87;;;22.50;;
10315;SDS011;5203;48.976;8.306;2022-12-11T04:19:56;34.23;;;23.57;;
10315;SDS011;5203;48.976;8.306;2022-12-11T04:22:40;36.40;;;23.23;;
10315;SDS011;5203;48.976;8.306;2022-12-11T04:25:24;34.60;;;23.83;;
10315;SDS011;5203;48.976;8.306;2022-12-11T04:27:50;35.77;;;24.20;;
10315;SDS011;5203;48.976;8.306;2022-12-11T04:30:18;32.17;;;23.30;;
10315;SDS011;5203;48.976;8.306;2022-12-11T04:32:48;35.57;;;24.33;;
10315;SDS011;5203;48.976;8.306;2022-12-11T04:35:15;31.30;;;21.83;;
10315;SDS011;5203;48.976;8.306;2022-12-11T04:37:41;31.97;;;23.57;;
10315;SDS011;5203;48.976;8.306;2022-12-11T04:40:08;35.70;;;23.23;;
10315;SDS011;5203;48.976;8.306;2022-12-11T04:42:36;34.03;;;23.77;;
10315;SDS011;5203;48.976;8.306;2022-12-11T04:45:02;36.00;;;25.80;;
10315;SDS011;5203;48.976;8.306;2022-12-11T04:47:29;32.23;;;24.67;;
10315;SDS011;5203;48.976;8.306;2022-12-11T04:49:54;36.33;;;24.63;;
10315;SDS011;5203;48.976;8.306;2022-12-11T04:52:20;38.50;;;26.27;;
10315;SDS011;5203;48.976;8.306;2022-12-11T04:54:46;34.40;;;23.20;;
10315;SDS011;5203;48.976;8.306;2022-12-11T04:57:12;38.20;;;27.17;;
10315;SDS011;5203;48.976;8.306;2022-12-11T04:59:37;33.87;;;24.33;;
10315;SDS011;5203;48.976;8.306;2022-12-11T05:02:03;37.60;;;24.97;;
10315;SDS011;5203;48.976;8.306;2022-12-11T05:04:29;38.50;;;26.13;;
10315;SDS011;5203;48.976;8.306;2022-12-11T05:06:59;40.27;;;26.20;;
10315;SDS011;5203;48.976;8.306;2022-12-11T05:09:25;35.17;;;25.60;;
10315;SDS011;5203;48.976;8.306;2022-12-11T05:11:51;34.93;;;24.90;;
10315;SDS011;5203;48.976;8.306;2022-12-11T05:14:17;37.27;;;25.70;;
10315;SDS011;5203;48.976;8.306;2022-12-11T05:16:43;37.10;;;25.57;;
10315;SDS011;5203;48.976;8.306;2022-12-11T05:19:09;37.73;;;25.03;;
10315;SDS011;5203;48.976;8.306;2022-12-11T05:21:34;38.33;;;25.90;;
10315;SDS011;5203;48.976;8.306;2022-12-11T05:24:00;39.73;;;26.50;;
10315;SDS011;5203;48.976;8.306;2022-12-11T05:26:26;36.30;;;25.47;;
10315;SDS011;5203;48.976;8.306;2022-12-11T05:28:52;39.30;;;25.67;;
10315;SDS011;5203;48.976;8.306;2022-12-11T05:31:22;32.93;;;23.10;;
10315;SDS011;5203;48.976;8.306;2022-12-11T05:33:49;33.97;;;24.47;;
10315;SDS011;5203;48.976;8.306;2022-12-11T05:38:46;34.20;;;23.73;;
10315;SDS011;5203;48.976;8.306;2022-12-11T05:41:13;34.40;;;22.93;;
10315;SDS011;5203;48.976;8.306;2022-12-11T05:43:41;33.90;;;23.33;;
10315;SDS011;5203;48.976;8.306;2022-12-11T05:46:11;32.70;;;23.33;;
10315;SDS011;5203;48.976;8.306;2022-12-11T05:48:39;35.27;;;21.33;;
10315;SDS011;5203;48.976;8.306;2022-12-11T05:51:06;32.87;;;22.43;;
10315;SDS011;5203;48.976;8.306;2022-12-11T05:53:33;35.30;;;22.67;;
10315;SDS011;5203;48.976;8.306;2022-12-11T05:56:00;34.77;;;23.77;;
10315;SDS011;5203;48.976;8.306;2022-12-11T05:58:30;34.40;;;23.93;;
10315;SDS011;5203;48.976;8.306;2022-12-11T06:00:57;36.23;;;24.57;;
10315;SDS011;5203;48.976;8.306;2022-12-11T06:03:23;32.80;;;23.97;;
10315;SDS011;5203;48.976;8.306;2022-12-11T06:05:49;35.10;;;23.07;;
10315;SDS011;5203;48.976;8.306;2022-12-11T06:08:15;36.47;;;25.17;;
10315;SDS011;5203;48.976;8.306;2022-12-11T06:10:44;40.50;;;25.97;;
10315;SDS011;5203;48.976;8.306;2022-12-11T06:13:11;35.13;;;24.07;;
10315;SDS011;5203;48.976;8.306;2022-12-11T06:15:37;32.33;;;22.33;;
10315;SDS011;5203;48.976;8.306;2022-12-11T06:18:02;35.40;;;24.70;;
10315;SDS011;5203;48.976;8.306;2022-12-11T06:20:31;37.33;;;24.10;;
10315;SDS011;5203;48.976;8.306;2022-12-11T06:22:58;33.07;;;22.90;;
10315;SDS011;5203;48.976;8.306;2022-12-11T06:25:25;33.20;;;21.93;;
10315;SDS011;5203;48.976;8.306;2022-12-11T06:27:51;29.73;;;22.17;;
10315;SDS011;5203;48.976;8.306;2022-12-11T06:30:16;30.87;;;22.63;;
10315;SDS011;5203;48.976;8.306;2022-12-11T06:32:42;32.03;;;21.87;;
10315;SDS011;5203;48.976;8.306;2022-12-11T06:35:08;31.83;;;21.63;;
10315;SDS011;5203;48.976;8.306;2022-12-11T06:37:36;28.97;;;22.00;;
10315;SDS011;5203;48.976;8.306;2022-12-11T06:40:05;33.00;;;22.67;;
10315;SDS011;5203;48.976;8.306;2022-12-11T06:42:32;33.10;;;23.30;;
10315;SDS011;5203;48.976;8.306;2022-12-11T06:44:58;29.63;;;20.77;;
10315;SDS011;5203;48.976;8.306;2022-12-11T06:47:27;29.47;;;22.33;;
10315;SDS011;5203;48.976;8.306;2022-12-11T06:49:54;29.83;;;21.80;;
10315;SDS011;5203;48.976;8.306;2022-12-11T06:52:24;31.97;;;22.00;;
10315;SDS011;5203;48.976;8.306;2022-12-11T06:54:51;32.40;;;21.43;;
10315;SDS011;5203;48.976;8.306;2022-12-11T06:57:17;31.00;;;20.90;;
10315;SDS011;5203;48.976;8.306;2022-12-11T06:59:43;34.37;;;22.37;;
10315;SDS011;5203;48.976;8.306;2022-12-11T07:02:12;32.87;;;21.57;;
10315;SDS011;5203;48.976;8.306;2022-12-11T07:04:40;31.77;;;21.87;;
10315;SDS011;5203;48.976;8.306;2022-12-11T07:07:06;32.50;;;21.60;;
10315;SDS011;5203;48.976;8.306;2022-12-11T07:09:32;33.13;;;21.57;;
10315;SDS011;5203;48.976;8.306;2022-12-11T07:11:58;31.27;;;20.90;;
10315;SDS011;5203;48.976;8.306;2022-12-11T07:14:24;33.90;;;21.87;;
10315;SDS011;5203;48.976;8.306;2022-12-11T07:16:49;33.80;;;23.30;;
10315;SDS011;5203;48.976;8.306;2022-12-11T07:19:15;35.07;;;23.13;;
10315;SDS011;5203;48.976;8.306;2022-12-11T07:21:41;36.33;;;22.60;;
10315;SDS011;5203;48.976;8.306;2022-12-11T07:24:07;35.47;;;23.57;;
10315;SDS011;5203;48.976;8.306;2022-12-11T07:26:33;31.57;;;22.30;;
10315;SDS011;5203;48.976;8.306;2022-12-11T07:28:59;31.77;;;22.03;;
10315;SDS011;5203;48.976;8.306;2022-12-11T07:31:25;35.77;;;22.03;;
10315;SDS011;5203;48.976;8.306;2022-12-11T07:34:00;39.63;;;24.47;;
10315;SDS011;5203;48.976;8.306;2022-12-11T07:36:29;31.57;;;21.97;;
10315;SDS011;5203;48.976;8.306;2022-12-11T07:38:55;38.97;;;24.73;;
10315;SDS011;5203;48.976;8.306;2022-12-11T07:41:22;34.57;;;22.43;;
10315;SDS011;5203;48.976;8.306;2022-12-11T07:43:48;34.67;;;23.43;;
10315;SDS011;5203;48.976;8.306;2022-12-11T07:46:15;29.63;;;21.47;;
10315;SDS011;5203;48.976;8.306;2022-12-11T07:48:43;30.40;;;23.27;;
10315;SDS011;5203;48.976;8.306;2022-12-11T07:51:14;35.57;;;23.07;;
10315;SDS011;5203;48.976;8.306;2022-12-11T07:53:42;31.17;;;22.63;;
10315;SDS011;5203;48.976;8.306;2022-12-11T07:56:09;35.43;;;24.43;;
10315;SDS011;5203;48.976;8.306;2022-12-11T07:58:35;34.97;;;23.73;;
10315;SDS011;5203;48.976;8.306;2022-12-11T08:01:03;35.27;;;25.20;;
10315;SDS011;5203;48.976;8.306;2022-12-11T08:03:37;31.87;;;23.90;;
10315;SDS011;5203;48.976;8.306;2022-12-11T08:06:03;30.97;;;23.00;;
10315;SDS011;5203;48.976;8.306;2022-12-11T08:08:29;33.37;;;23.83;;
10315;SDS011;5203;48.976;8.306;2022-12-11T08:10:54;35.77;;;24.20;;
10315;SDS011;5203;48.976;8.306;2022-12-11T08:13:20;32.63;;;23.37;;
10315;SDS011;5203;48.976;8.306;2022-12-11T08:15:46;35.17;;;25.83;;
10315;SDS011;5203;48.976;8.306;2022-12-11T08:18:11;34.00;;;25.37;;
10315;SDS011;5203;48.976;8.306;2022-12-11T08:20:37;35.57;;;24.27;;
10315;SDS011;5203;48.976;8.306;2022-12-11T08:23:03;38.77;;;26.20;;
10315;SDS011;5203;48.976;8.306;2022-12-11T08:25:29;39.30;;;25.67;;
10315;SDS011;5203;48.976;8.306;2022-12-11T08:27:55;33.07;;;24.33;;
10315;SDS011;5203;48.976;8.306;2022-12-11T08:30:20;37.83;;;26.20;;
10315;SDS011;5203;48.976;8.306;2022-12-11T08:32:46;34.53;;;24.53;;
10315;SDS011;5203;48.976;8.306;2022-12-11T08:35:12;35.43;;;26.23;;
10315;SDS011;5203;48.976;8.306;2022-12-11T08:37:37;35.43;;;25.17;;
10315;SDS011;5203;48.976;8.306;2022-12-11T08:40:04;33.73;;;25.17;;
10315;SDS011;5203;48.976;8.306;2022-12-11T08:42:30;41.00;;;27.10;;
10315;SDS011;5203;48.976;8.306;2022-12-11T08:44:56;38.53;;;26.07;;
10315;SDS011;5203;48.976;8.306;2022-12-11T08:47:21;38.13;;;24.77;;
10315;SDS011;5203;48.976;8.306;2022-12-11T08:49:47;36.97;;;25.20;;
10315;SDS011;5203;48.976;8.306;2022-12-11T08:52:12;38.60;;;26.13;;
10315;SDS011;5203;48.976;8.306;2022-12-11T08:54:38;39.30;;;25.03;;
10315;SDS011;5203;48.976;8.306;2022-12-11T08:57:04;37.17;;;24.90;;
10315;SDS011;5203;48.976;8.306;2022-12-11T08:59:29;33.63;;;23.43;;
10315;SDS011;5203;48.976;8.306;2022-12-11T09:01:55;38.07;;;24.53;;
10315;SDS011;5203;48.976;8.306;2022-12-11T09:04:21;32.03;;;23.37;;
10315;SDS011;5203;48.976;8.306;2022-12-11T09:06:47;36.47;;;23.50;;
10315;SDS011;5203;48.976;8.306;2022-12-11T09:09:13;38.03;;;23.80;;
10315;SDS011;5203;48.976;8.306;2022-12-11T09:11:39;31.93;;;22.43;;
10315;SDS011;5203;48.976;8.306;2022-12-11T09:14:05;37.03;;;23.47;;
10315;SDS011;5203;48.976;8.306;2022-12-11T09:16:31;35.33;;;23.27;;
10315;SDS011;5203;48.976;8.306;2022-12-11T09:18:57;37.13;;;24.03;;
10315;SDS011;5203;48.976;8.306;2022-12-11T09:21:24;34.60;;;24.27;;
10315;SDS011;5203;48.976;8.306;2022-12-11T09:23:53;36.87;;;23.83;;
10315;SDS011;5203;48.976;8.306;2022-12-11T09:26:20;35.23;;;23.43;;
10315;SDS011;5203;48.976;8.306;2022-12-11T09:28:46;31.90;;;22.43;;
10315;SDS011;5203;48.976;8.306;2022-12-11T09:33:38;36.50;;;24.17;;
10315;SDS011;5203;48.976;8.306;2022-12-11T09:36:04;37.70;;;24.03;;
10315;SDS011;5203;48.976;8.306;2022-12-11T09:38:30;33.97;;;23.83;;
10315;SDS011;5203;48.976;8.306;2022-12-11T09:40:57;35.97;;;24.30;;
10315;SDS011;5203;48.976;8.306;2022-12-11T09:45:51;32.33;;;22.00;;
10315;SDS011;5203;48.976;8.306;2022-12-11T09:48:19;35.73;;;24.90;;
10315;SDS011;5203;48.976;8.306;2022-12-11T09:50:49;36.57;;;24.13;;
10315;SDS011;5203;48.976;8.306;2022-12-11T09:53:19;35.77;;;23.47;;
10315;SDS011;5203;48.976;8.306;2022-12-11T09:55:55;32.70;;;23.27;;
10315;SDS011;5203;48.976;8.306;2022-12-11T09:58:37;36.67;;;25.60;;
10315;SDS011;5203;48.976;8.306;2022-12-11T10:04:08;37.60;;;24.07;;
10315;SDS011;5203;48.976;8.306;2022-12-11T10:06:47;35.90;;;23.73;;
10315;SDS011;5203;48.976;8.306;2022-12-11T10:09:24;35.70;;;23.90;;
10315;SDS011;5203;48.976;8.306;2022-12-11T10:12:01;32.20;;;22.33;;
10315;SDS011;5203;48.976;8.306;2022-12-11T10:17:22;31.97;;;22.80;;
10315;SDS011;5203;48.976;8.306;2022-12-11T10:19:52;37.80;;;24.37;;
10315;SDS011;5203;48.976;8.306;2022-12-11T10:22:23;34.50;;;23.63;;
10315;SDS011;5203;48.976;8.306;2022-12-11T10:27:28;36.57;;;24.43;;
10315;SDS011;5203;48.976;8.306;2022-12-11T10:35:09;36.40;;;24.50;;
10315;SDS011;5203;48.976;8.306;2022-12-11T10:37:51;33.13;;;24.27;;
10315;SDS011;5203;48.976;8.306;2022-12-11T10:40:23;36.67;;;23.40;;
10315;SDS011;5203;48.976;8.306;2022-12-11T10:42:50;35.30;;;23.63;;
10315;SDS011;5203;48.976;8.306;2022-12-11T10:45:19;38.03;;;24.53;;
10315;SDS011;5203;48.976;8.306;2022-12-11T10:47:45;32.63;;;22.83;;
10315;SDS011;5203;48.976;8.306;2022-12-11T10:50:21;31.87;;;23.47;;
10315;SDS011;5203;48.976;8.306;2022-12-11T10:52:49;37.20;;;24.70;;
10315;SDS011;5203;48.976;8.306;2022-12-11T10:57:52;32.73;;;24.70;;
10315;SDS011;5203;48.976;8.306;2022-12-11T11:00:36;34.77;;;25.63;;
10315;SDS011;5203;48.976;8.306;2022-12-11T11:03:05;37.90;;;26.63;;
10315;SDS011;5203;48.976;8.306;2022-12-11T11:06:00;35.70;;;25.67;;
10315;SDS011;5203;48.976;8.306;2022-12-11T11:08:44;38.63;;;25.50;;
10315;SDS011;5203;48.976;8.306;2022-12-11T11:11:30;35.47;;;24.33;;
10315;SDS011;5203;48.976;8.306;2022-12-11T11:14:17;37.47;;;26.27;;
10315;SDS011;5203;48.976;8.306;2022-12-11T11:16:46;34.67;;;24.10;;
10315;SDS011;5203;48.976;8.306;2022-12-11T11:21:57;36.23;;;25.97;;
10315;SDS011;5203;48.976;8.306;2022-12-11T11:24:27;34.63;;;24.90;;
10315;SDS011;5203;48.976;8.306;2022-12-11T11:26:53;41.50;;;26.23;;
10315;SDS011;5203;48.976;8.306;2022-12-11T11:29:23;34.40;;;25.43;;
10315;SDS011;5203;48.976;8.306;2022-12-11T11:31:52;35.53;;;24.97;;
10315;SDS011;5203;48.976;8.306;2022-12-11T11:34:19;35.80;;;25.57;;
10315;SDS011;5203;48.976;8.306;2022-12-11T11:36:56;38.27;;;25.97;;
10315;SDS011;5203;48.976;8.306;2022-12-11T11:39:34;34.57;;;25.30;;
10315;SDS011;5203;48.976;8.306;2022-12-11T11:42:20;36.73;;;26.17;;
10315;SDS011;5203;48.976;8.306;2022-12-11T11:45:16;43.43;;;26.43;;
10315;SDS011;5203;48.976;8.306;2022-12-11T11:50:50;36.23;;;26.13;;
10315;SDS011;5203;48.976;8.306;2022-12-11T11:53:30;34.00;;;24.67;;
10315;SDS011;5203;48.976;8.306;2022-12-11T11:56:10;34.30;;;23.87;;
10315;SDS011;5203;48.976;8.306;2022-12-11T11:58:58;33.07;;;24.83;;
10315;SDS011;5203;48.976;8.306;2022-12-11T12:01:26;32.43;;;24.17;;
10315;SDS011;5203;48.976;8.306;2022-12-11T12:03:52;35.93;;;25.60;;
10315;SDS011;5203;48.976;8.306;2022-12-11T12:09:11;39.43;;;26.47;;
10315;SDS011;5203;48.976;8.306;2022-12-11T12:22:04;31.07;;;23.33;;
10315;SDS011;5203;48.976;8.306;2022-12-11T12:30:48;27.43;;;21.07;;
10315;SDS011;5203;48.976;8.306;2022-12-11T12:44:21;34.53;;;24.77;;
10315;SDS011;5203;48.976;8.306;2022-12-11T12:49:34;30.47;;;24.07;;
10315;SDS011;5203;48.976;8.306;2022-12-11T12:52:04;29.03;;;22.80;;
10315;SDS011;5203;48.976;8.306;2022-12-11T12:54:35;29.40;;;23.57;;
10315;SDS011;5203;48.976;8.306;2022-12-11T12:57:02;29.70;;;22.73;;
10315;SDS011;5203;48.976;8.306;2022-12-11T12:59:29;28.93;;;22.83;;
10315;SDS011;5203;48.976;8.306;2022-12-11T13:01:59;31.73;;;23.80;;
10315;SDS011;5203;48.976;8.306;2022-12-11T13:04:33;30.63;;;23.60;;
10315;SDS011;5203;48.976;8.306;2022-12-11T13:07:09;28.20;;;22.50;;
10315;SDS011;5203;48.976;8.306;2022-12-11T13:09:54;26.57;;;19.97;;
10315;SDS011;5203;48.976;8.306;2022-12-11T13:12:29;28.93;;;21.33;;
10315;SDS011;5203;48.976;8.306;2022-12-11T13:15:27;26.60;;;20.57;;
10315;SDS011;5203;48.976;8.306;2022-12-11T13:17:56;25.73;;;20.63;;
10315;SDS011;5203;48.976;8.306;2022-12-11T13:20:24;26.63;;;20.27;;
10315;SDS011;5203;48.976;8.306;2022-12-11T13:25:46;26.10;;;19.57;;
10315;SDS011;5203;48.976;8.306;2022-12-11T13:34:06;24.60;;;20.17;;
10315;SDS011;5203;48.976;8.306;2022-12-11T13:36:48;28.20;;;19.23;;
10315;SDS011;5203;48.976;8.306;2022-12-11T13:39:17;26.37;;;20.37;;
10315;SDS011;5203;48.976;8.306;2022-12-11T13:41:50;23.80;;;18.80;;
10315;SDS011;5203;48.976;8.306;2022-12-11T13:44:33;24.83;;;19.47;;
10315;SDS011;5203;48.976;8.306;2022-12-11T13:47:03;23.87;;;19.73;;
10315;SDS011;5203;48.976;8.306;2022-12-11T13:49:33;25.07;;;19.97;;
10315;SDS011;5203;48.976;8.306;2022-12-11T13:52:02;25.63;;;19.97;;
10315;SDS011;5203;48.976;8.306;2022-12-11T13:54:29;26.70;;;20.50;;
10315;SDS011;5203;48.976;8.306;2022-12-11T14:01:59;24.47;;;19.93;;
10315;SDS011;5203;48.976;8.306;2022-12-11T14:04:34;28.93;;;21.67;;
10315;SDS011;5203;48.976;8.306;2022-12-11T14:07:00;27.00;;;21.03;;
10315;SDS011;5203;48.976;8.306;2022-12-11T14:09:30;29.60;;;22.27;;
10315;SDS011;5203;48.976;8.306;2022-12-11T14:11:56;25.53;;;20.10;;
10315;SDS011;5203;48.976;8.306;2022-12-11T14:14:35;25.47;;;19.60;;
10315;SDS011;5203;48.976;8.306;2022-12-11T14:17:13;27.73;;;21.30;;
10315;SDS011;5203;48.976;8.306;2022-12-11T14:19:47;27.63;;;20.60;;
10315;SDS011;5203;48.976;8.306;2022-12-11T14:22:24;24.90;;;19.67;;
10315;SDS011;5203;48.976;8.306;2022-12-11T14:24:52;25.70;;;20.53;;
10315;SDS011;5203;48.976;8.306;2022-12-11T14:27:19;26.33;;;20.60;;
10315;SDS011;5203;48.976;8.306;2022-12-11T14:29:46;25.33;;;20.50;;
10315;SDS011;5203;48.976;8.306;2022-12-11T14:32:15;27.77;;;21.47;;
10315;SDS011;5203;48.976;8.306;2022-12-11T14:34:52;25.43;;;19.57;;
10315;SDS011;5203;48.976;8.306;2022-12-11T14:37:19;24.00;;;18.77;;
10315;SDS011;5203;48.976;8.306;2022-12-11T14:42:29;26.73;;;19.00;;
10315;SDS011;5203;48.976;8.306;2022-12-11T14:47:45;24.03;;;19.10;;
10315;SDS011;5203;48.976;8.306;2022-12-11T14:53:18;27.97;;;20.93;;
10315;SDS011;5203;48.976;8.306;2022-12-11T14:55:47;25.00;;;20.10;;
10315;SDS011;5203;48.976;8.306;2022-12-11T14:58:18;25.63;;;19.50;;
10315;SDS011;5203;48.976;8.306;2022-12-11T15:03:29;22.07;;;19.40;;
10315;SDS011;5203;48.976;8.306;2022-12-11T15:06:00;25.03;;;20.17;;
10315;SDS011;5203;48.976;8.306;2022-12-11T15:10:58;24.23;;;19.13;;
10315;SDS011;5203;48.976;8.306;2022-12-11T15:13:30;20.90;;;18.37;;
10315;SDS011;5203;48.976;8.306;2022-12-11T15:15:58;27.43;;;20.70;;
10315;SDS011;5203;48.976;8.306;2022-12-11T15:18:26;25.53;;;20.10;;
10315;SDS011;5203;48.976;8.306;2022-12-11T15:21:04;25.10;;;18.63;;
10315;SDS011;5203;48.976;8.306;2022-12-11T15:23:35;23.47;;;17.90;;
10315;SDS011;5203;48.976;8.306;2022-12-11T15:26:10;24.10;;;19.87;;
10315;SDS011;5203;48.976;8.306;2022-12-11T15:28:37;23.97;;;19.20;;
10315;SDS011;5203;48.976;8.306;2022-12-11T15:33:47;26.10;;;18.93;;
10315;SDS011;5203;48.976;8.306;2022-12-11T15:39:08;26.00;;;19.50;;
10315;SDS011;5203;48.976;8.306;2022-12-11T15:41:33;24.63;;;19.73;;
10315;SDS011;5203;48.976;8.306;2022-12-11T15:44:00;23.87;;;19.50;;
10315;SDS011;5203;48.976;8.306;2022-12-11T15:46:28;21.80;;;18.63;;
10315;SDS011;5203;48.976;8.306;2022-12-11T15:48:54;24.77;;;20.80;;
10315;SDS011;5203;48.976;8.306;2022-12-11T15:51:21;26.50;;;20.93;;
10315;SDS011;5203;48.976;8.306;2022-12-11T15:53:47;23.50;;;19.23;;
10315;SDS011;5203;48.976;8.306;2022-12-11T15:56:16;24.93;;;18.50;;
10315;SDS011;5203;48.976;8.306;2022-12-11T15:58:45;24.03;;;18.60;;
10315;SDS011;5203;48.976;8.306;2022-12-11T16:01:12;23.63;;;19.10;;
10315;SDS011;5203;48.976;8.306;2022-12-11T16:03:38;23.33;;;19.87;;
10315;SDS011;5203;48.976;8.306;2022-12-11T16:06:04;22.53;;;18.53;;
10315;SDS011;5203;48.976;8.306;2022-12-11T16:08:30;22.63;;;18.67;;
10315;SDS011;5203;48.976;8.306;2022-12-11T16:10:56;25.30;;;21.30;;
10315;SDS011;5203;48.976;8.306;2022-12-11T16:13:21;22.17;;;17.90;;
10315;SDS011;5203;48.976;8.306;2022-12-11T16:15:48;18.27;;;16.23;;
10315;SDS011;5203;48.976;8.306;2022-12-11T16:18:16;22.87;;;17.80;;
10315;SDS011;5203;48.976;8.306;2022-12-11T16:20:43;22.27;;;17.17;;
10315;SDS011;5203;48.976;8.306;2022-12-11T16:23:10;20.40;;;17.00;;
10315;SDS011;5203;48.976;8.306;2022-12-11T16:25:38;23.77;;;18.53;;
10315;SDS011;5203;48.976;8.306;2022-12-11T16:28:05;28.40;;;20.00;;
10315;SDS011;5203;48.976;8.306;2022-12-11T16:30:32;23.30;;;19.20;;
10315;SDS011;5203;48.976;8.306;2022-12-11T16:32:59;22.90;;;19.30;;
10315;SDS011;5203;48.976;8.306;2022-12-11T16:35:25;23.77;;;20.03;;
10315;SDS011;5203;48.976;8.306;2022-12-11T16:37:52;24.33;;;21.60;;
10315;SDS011;5203;48.976;8.306;2022-12-11T16:40:18;24.60;;;20.87;;
10315;SDS011;5203;48.976;8.306;2022-12-11T16:42:44;26.67;;;21.33;;